KSJC/SJC METAR and TAF weather

Enter ICAO airport designator
Station Type Date Time Source
KSJC METAR 2019/12/13 16:53 UTC NOAA

KSJC 131653Z 13004KT 10SM FEW001 SCT005 BKN100 15/12 A3020 RMK AO2 SLP227 T01500122


Station Type Date Time Source
KSJC Decoded METAR 2019/12/13 16:53 UTC NOAA

SAN JOSE INTERNATIONAL AIRPORT, CA, United States (KSJC) 37-22N 121-55W 25M
Dec 13, 2019 - 11:53 AM EST / 2019.12.13 1653 UTC
Wind: from the SE (130 degrees) at 5 MPH (4 KT):0
Visibility: 10 mile(s):0
Sky conditions: mostly cloudy
Temperature: 59.0 F (15.0 C)
Dew Point: 54.0 F (12.2 C)
Relative Humidity: 83%
Pressure (altimeter): 30.2 in. Hg (1022 hPa)
ob: KSJC 131653Z 13004KT 10SM FEW001 SCT005 BKN100 15/12 A3020 RMK AO2 SLP227 T01500122
cycle: 17

Station Type Date Time Source
KSJC TAF 2019/12/13 17:42 UTC NOAA

TAF
AMD KSJC 131639Z 1317/1412 15004KT 6SM BR FEW001 SCT005 BKN100
FM131800 15004KT P6SM SCT010 BKN100
FM132200 15007KT P6SM BKN020 BKN040
FM140000 16008KT P6SM -RA OVC025
FM140400 14004KT 5SM BR OVC018

Example: see airport list